Wilford, Idaho
Current Conditions -  °F | °C
As of 12:30 PM on Thursday 30 Oct 2014 (Local Time) from KWYS Reporting Station
Clear Clear  
Wind Chill: 41°   Ceiling: Unl
Heat Index: 41°   Visibility: 10mi
Dew Point: 32°   Wind: 3mph
Humidity: 70%   Direction: 50°NE
Pressure: 30.35"   Gusts: NA
Location:  44.2887°N, 111.507°W
Report Text: KWYS 301830Z AUTO 05003KT 10SM CLR 05/00 A3035 RMK AO2
Loading
Personal Weather Stations






























Interactive Weather Map
Tropical Storm Tracking
New forecast layout! Learn more

10-Day Weather Forecast

Advertisements
Track Severe Weather on mobile